sensor_id;sensor_type;location;lat;lon;timestamp;pressure;altitude;pressure_sealevel;temperature
65765;BMP180;52915;53.718;19.946;2023-05-07T00:04:16;101198.20;;;6.40
65765;BMP180;52915;53.718;19.946;2023-05-07T00:09:22;101197.40;;;6.20
65765;BMP180;52915;53.718;19.946;2023-05-07T00:14:26;101202.00;;;6.10
65765;BMP180;52915;53.718;19.946;2023-05-07T00:19:30;101198.20;;;6.00
65765;BMP180;52915;53.718;19.946;2023-05-07T00:24:35;101200.80;;;5.90
65765;BMP180;52915;53.718;19.946;2023-05-07T00:29:39;101200.80;;;5.82
65765;BMP180;52915;53.718;19.946;2023-05-07T00:34:44;101204.00;;;5.80
65765;BMP180;52915;53.718;19.946;2023-05-07T00:39:47;101199.00;;;5.70
65765;BMP180;52915;53.718;19.946;2023-05-07T00:44:51;101202.40;;;5.70
65765;BMP180;52915;53.718;19.946;2023-05-07T00:49:57;101205.60;;;5.60
65765;BMP180;52915;53.718;19.946;2023-05-07T00:55:06;101210.20;;;5.60
65765;BMP180;52915;53.718;19.946;2023-05-07T01:00:12;101211.00;;;5.50
65765;BMP180;52915;53.718;19.946;2023-05-07T01:05:20;101223.00;;;5.50
65765;BMP180;52915;53.718;19.946;2023-05-07T01:10:26;101223.60;;;5.40
65765;BMP180;52915;53.718;19.946;2023-05-07T01:15:30;101226.00;;;5.40
65765;BMP180;52915;53.718;19.946;2023-05-07T01:20:35;101226.60;;;5.30
65765;BMP180;52915;53.718;19.946;2023-05-07T01:25:38;101226.20;;;5.20
65765;BMP180;52915;53.718;19.946;2023-05-07T01:30:54;101231.00;;;5.20
65765;BMP180;52915;53.718;19.946;2023-05-07T01:36:00;101236.40;;;5.10
65765;BMP180;52915;53.718;19.946;2023-05-07T01:41:07;101240.00;;;5.00
65765;BMP180;52915;53.718;19.946;2023-05-07T01:46:12;101251.40;;;4.86
65765;BMP180;52915;53.718;19.946;2023-05-07T01:51:17;101255.20;;;4.80
65765;BMP180;52915;53.718;19.946;2023-05-07T01:56:22;101253.00;;;4.70
65765;BMP180;52915;53.718;19.946;2023-05-07T02:01:26;101259.40;;;4.60
65765;BMP180;52915;53.718;19.946;2023-05-07T02:06:30;101252.60;;;4.50
65765;BMP180;52915;53.718;19.946;2023-05-07T02:11:35;101256.00;;;4.40
65765;BMP180;52915;53.718;19.946;2023-05-07T02:16:38;101256.80;;;4.40
65765;BMP180;52915;53.718;19.946;2023-05-07T02:21:44;101261.60;;;4.30
65765;BMP180;52915;53.718;19.946;2023-05-07T02:26:51;101270.20;;;4.20
65765;BMP180;52915;53.718;19.946;2023-05-07T02:31:54;101275.80;;;4.10
65765;BMP180;52915;53.718;19.946;2023-05-07T02:36:58;101280.40;;;4.10
65765;BMP180;52915;53.718;19.946;2023-05-07T02:42:03;101275.60;;;4.00
65765;BMP180;52915;53.718;19.946;2023-05-07T02:47:06;101273.60;;;3.90
65765;BMP180;52915;53.718;19.946;2023-05-07T02:52:13;101279.00;;;3.80
65765;BMP180;52915;53.718;19.946;2023-05-07T02:57:17;101282.40;;;3.80
65765;BMP180;52915;53.718;19.946;2023-05-07T03:02:21;101281.60;;;3.70
65765;BMP180;52915;53.718;19.946;2023-05-07T03:07:26;101284.80;;;3.70
65765;BMP180;52915;53.718;19.946;2023-05-07T03:12:31;101285.20;;;3.66
65765;BMP180;52915;53.718;19.946;2023-05-07T03:17:34;101291.20;;;3.70
65765;BMP180;52915;53.718;19.946;2023-05-07T03:22:40;101300.40;;;3.70
65765;BMP180;52915;53.718;19.946;2023-05-07T03:27:43;101308.80;;;3.90
65765;BMP180;52915;53.718;19.946;2023-05-07T03:32:48;101310.80;;;4.00
65765;BMP180;52915;53.718;19.946;2023-05-07T03:37:55;101312.40;;;4.20
65765;BMP180;52915;53.718;19.946;2023-05-07T03:43:00;101312.00;;;4.28
65765;BMP180;52915;53.718;19.946;2023-05-07T03:48:05;101313.00;;;4.30
65765;BMP180;52915;53.718;19.946;2023-05-07T03:53:08;101321.00;;;4.34
65765;BMP180;52915;53.718;19.946;2023-05-07T03:58:13;101318.20;;;4.40
65765;BMP180;52915;53.718;19.946;2023-05-07T04:03:18;101317.20;;;4.50
65765;BMP180;52915;53.718;19.946;2023-05-07T04:08:23;101327.80;;;4.60
65765;BMP180;52915;53.718;19.946;2023-05-07T04:13:26;101328.20;;;4.80
65765;BMP180;52915;53.718;19.946;2023-05-07T04:18:31;101337.00;;;4.90
65765;BMP180;52915;53.718;19.946;2023-05-07T04:23:36;101341.20;;;5.10
65765;BMP180;52915;53.718;19.946;2023-05-07T04:28:40;101337.20;;;5.36
65765;BMP180;52915;53.718;19.946;2023-05-07T04:33:44;101338.80;;;5.58
65765;BMP180;52915;53.718;19.946;2023-05-07T04:38:49;101338.60;;;5.80
65765;BMP180;52915;53.718;19.946;2023-05-07T04:43:53;101349.80;;;6.00
65765;BMP180;52915;53.718;19.946;2023-05-07T04:48:57;101352.20;;;6.26
65765;BMP180;52915;53.718;19.946;2023-05-07T04:54:01;101360.60;;;6.50
65765;BMP180;52915;53.718;19.946;2023-05-07T04:59:05;101367.80;;;6.70
65765;BMP180;52915;53.718;19.946;2023-05-07T05:04:10;101371.40;;;7.00
65765;BMP180;52915;53.718;19.946;2023-05-07T05:09:14;101373.60;;;7.22
65765;BMP180;52915;53.718;19.946;2023-05-07T05:14:19;101378.00;;;7.50
65765;BMP180;52915;53.718;19.946;2023-05-07T05:19:24;101376.40;;;7.80
65765;BMP180;52915;53.718;19.946;2023-05-07T05:24:30;101383.60;;;8.06
65765;BMP180;52915;53.718;19.946;2023-05-07T05:29:34;101383.20;;;8.30
65765;BMP180;52915;53.718;19.946;2023-05-07T05:34:39;101389.00;;;8.54
65765;BMP180;52915;53.718;19.946;2023-05-07T05:39:43;101392.60;;;8.80
65765;BMP180;52915;53.718;19.946;2023-05-07T05:44:47;101392.00;;;9.10
65765;BMP180;52915;53.718;19.946;2023-05-07T05:49:50;101399.00;;;9.36
65765;BMP180;52915;53.718;19.946;2023-05-07T05:54:55;101402.60;;;9.70
65765;BMP180;52915;53.718;19.946;2023-05-07T06:00:00;101407.40;;;9.98
65765;BMP180;52915;53.718;19.946;2023-05-07T06:05:05;101410.80;;;10.28
65765;BMP180;52915;53.718;19.946;2023-05-07T06:10:09;101412.20;;;10.52
65765;BMP180;52915;53.718;19.946;2023-05-07T06:15:14;101414.60;;;10.80
65765;BMP180;52915;53.718;19.946;2023-05-07T06:20:18;101413.00;;;11.08
65765;BMP180;52915;53.718;19.946;2023-05-07T06:25:22;101415.40;;;11.32
65765;BMP180;52915;53.718;19.946;2023-05-07T06:30:26;101417.40;;;11.60
65765;BMP180;52915;53.718;19.946;2023-05-07T06:35:31;101418.80;;;11.80
65765;BMP180;52915;53.718;19.946;2023-05-07T06:40:35;101424.20;;;12.20
65765;BMP180;52915;53.718;19.946;2023-05-07T06:45:40;101424.80;;;12.50
65765;BMP180;52915;53.718;19.946;2023-05-07T06:50:44;101419.80;;;12.90
65765;BMP180;52915;53.718;19.946;2023-05-07T06:55:48;101429.20;;;13.20
65765;BMP180;52915;53.718;19.946;2023-05-07T07:00:52;101428.00;;;13.60
65765;BMP180;52915;53.718;19.946;2023-05-07T07:05:56;101431.40;;;13.90
65765;BMP180;52915;53.718;19.946;2023-05-07T07:11:00;101431.80;;;14.18
65765;BMP180;52915;53.718;19.946;2023-05-07T07:16:04;101433.20;;;14.40
65765;BMP180;52915;53.718;19.946;2023-05-07T07:21:09;101432.00;;;14.66
65765;BMP180;52915;53.718;19.946;2023-05-07T07:26:17;101434.00;;;14.90
65765;BMP180;52915;53.718;19.946;2023-05-07T07:31:22;101443.20;;;15.10
65765;BMP180;52915;53.718;19.946;2023-05-07T07:36:26;101443.60;;;15.20
65765;BMP180;52915;53.718;19.946;2023-05-07T07:42:41;101447.20;;;15.30
65765;BMP180;52915;53.718;19.946;2023-05-07T07:53:22;101451.60;;;15.98
65765;BMP180;52915;53.718;19.946;2023-05-07T08:06:13;101447.40;;;16.50
65765;BMP180;52915;53.718;19.946;2023-05-07T08:11:42;101447.80;;;16.70
65765;BMP180;52915;53.718;19.946;2023-05-07T08:23:37;101443.80;;;16.98
65765;BMP180;52915;53.718;19.946;2023-05-07T08:35:57;101451.40;;;17.32
65765;BMP180;52915;53.718;19.946;2023-05-07T08:41:13;101453.20;;;17.42
65765;BMP180;52915;53.718;19.946;2023-05-07T08:46:20;101450.80;;;17.40
65765;BMP180;52915;53.718;19.946;2023-05-07T08:52:15;101452.20;;;17.30
65765;BMP180;52915;53.718;19.946;2023-05-07T08:57:22;101455.40;;;17.40
65765;BMP180;52915;53.718;19.946;2023-05-07T09:02:29;101454.00;;;17.50
65765;BMP180;52915;53.718;19.946;2023-05-07T09:08:25;101451.60;;;17.80
65765;BMP180;52915;53.718;19.946;2023-05-07T09:13:35;101464.60;;;18.20
65765;BMP180;52915;53.718;19.946;2023-05-07T09:25:39;101465.60;;;18.30
65765;BMP180;52915;53.718;19.946;2023-05-07T09:37:20;101461.00;;;18.80
65765;BMP180;52915;53.718;19.946;2023-05-07T09:42:50;101450.60;;;19.36
65765;BMP180;52915;53.718;19.946;2023-05-07T09:47:58;101457.00;;;19.90
65765;BMP180;52915;53.718;19.946;2023-05-07T09:53:29;101455.60;;;20.14
65765;BMP180;52915;53.718;19.946;2023-05-07T09:58:41;101463.20;;;20.50
65765;BMP180;52915;53.718;19.946;2023-05-07T10:04:12;101477.40;;;20.20
65765;BMP180;52915;53.718;19.946;2023-05-07T10:09:26;101478.60;;;19.50
65765;BMP180;52915;53.718;19.946;2023-05-07T10:14:32;101471.80;;;19.40
65765;BMP180;52915;53.718;19.946;2023-05-07T10:20:01;101479.40;;;19.50
65765;BMP180;52915;53.718;19.946;2023-05-07T10:25:45;101482.20;;;19.70
65765;BMP180;52915;53.718;19.946;2023-05-07T10:36:35;101474.00;;;19.60
65765;BMP180;52915;53.718;19.946;2023-05-07T10:42:13;101478.60;;;19.70
65765;BMP180;52915;53.718;19.946;2023-05-07T10:47:17;101483.40;;;20.00
65765;BMP180;52915;53.718;19.946;2023-05-07T10:52:25;101471.20;;;20.10
65765;BMP180;52915;53.718;19.946;2023-05-07T10:57:37;101471.00;;;20.40
65765;BMP180;52915;53.718;19.946;2023-05-07T11:03:07;101468.00;;;20.46
65765;BMP180;52915;53.718;19.946;2023-05-07T11:08:11;101470.60;;;20.50
65765;BMP180;52915;53.718;19.946;2023-05-07T11:13:43;101467.00;;;20.74
65765;BMP180;52915;53.718;19.946;2023-05-07T11:24:52;101466.40;;;20.80
65765;BMP180;52915;53.718;19.946;2023-05-07T11:37:23;101480.40;;;21.10
65765;BMP180;52915;53.718;19.946;2023-05-07T11:42:54;101479.80;;;20.90
65765;BMP180;52915;53.718;19.946;2023-05-07T11:47:57;101486.60;;;20.90
65765;BMP180;52915;53.718;19.946;2023-05-07T11:53:34;101467.80;;;20.60
65765;BMP180;52915;53.718;19.946;2023-05-07T11:58:47;101471.20;;;20.48
65765;BMP180;52915;53.718;19.946;2023-05-07T12:04:19;101474.20;;;20.50
65765;BMP180;52915;53.718;19.946;2023-05-07T12:10:07;101477.00;;;20.70
65765;BMP180;52915;53.718;19.946;2023-05-07T12:15:16;101471.80;;;21.00
65765;BMP180;52915;53.718;19.946;2023-05-07T12:21:10;101468.60;;;21.30
65765;BMP180;52915;53.718;19.946;2023-05-07T12:26:39;101472.20;;;21.30
65765;BMP180;52915;53.718;19.946;2023-05-07T12:32:20;101465.40;;;21.30
65765;BMP180;52915;53.718;19.946;2023-05-07T12:37:25;101472.20;;;21.40
65765;BMP180;52915;53.718;19.946;2023-05-07T12:48:58;101482.00;;;21.62
65765;BMP180;52915;53.718;19.946;2023-05-07T12:54:04;101472.40;;;21.58
65765;BMP180;52915;53.718;19.946;2023-05-07T12:59:34;101483.60;;;21.78
65765;BMP180;52915;53.718;19.946;2023-05-07T13:04:49;101474.60;;;21.90
65765;BMP180;52915;53.718;19.946;2023-05-07T13:10:23;101476.80;;;22.04
65765;BMP180;52915;53.718;19.946;2023-05-07T13:15:27;101476.80;;;22.24
65765;BMP180;52915;53.718;19.946;2023-05-07T13:20:45;101473.00;;;22.46
65765;BMP180;52915;53.718;19.946;2023-05-07T13:26:40;101471.00;;;22.70
65765;BMP180;52915;53.718;19.946;2023-05-07T13:31:50;101483.60;;;22.50
65765;BMP180;52915;53.718;19.946;2023-05-07T13:36:56;101482.20;;;22.40
65765;BMP180;52915;53.718;19.946;2023-05-07T13:42:22;101473.80;;;22.30
65765;BMP180;52915;53.718;19.946;2023-05-07T13:48:19;101479.00;;;22.10
65765;BMP180;52915;53.718;19.946;2023-05-07T13:53:25;101474.60;;;21.90
65765;BMP180;52915;53.718;19.946;2023-05-07T13:59:20;101471.80;;;22.00
65765;BMP180;52915;53.718;19.946;2023-05-07T14:11:07;101475.40;;;22.30
65765;BMP180;52915;53.718;19.946;2023-05-07T14:16:11;101468.00;;;22.40
65765;BMP180;52915;53.718;19.946;2023-05-07T14:21:15;101472.60;;;22.50
65765;BMP180;52915;53.718;19.946;2023-05-07T14:26:25;101474.40;;;21.72
65765;BMP180;52915;53.718;19.946;2023-05-07T14:31:59;101467.00;;;21.48
65765;BMP180;52915;53.718;19.946;2023-05-07T14:37:56;101475.20;;;21.70
65765;BMP180;52915;53.718;19.946;2023-05-07T14:43:01;101473.80;;;21.40
65765;BMP180;52915;53.718;19.946;2023-05-07T14:54:57;101473.60;;;21.14
65765;BMP180;52915;53.718;19.946;2023-05-07T15:00:04;101478.20;;;21.58
65765;BMP180;52915;53.718;19.946;2023-05-07T15:05:10;101458.40;;;23.36
65765;BMP180;52915;53.718;19.946;2023-05-07T15:20:47;101485.60;;;30.16
65765;BMP180;52915;53.718;19.946;2023-05-07T15:32:55;101486.80;;;31.20
65765;BMP180;52915;53.718;19.946;2023-05-07T15:38:07;101495.00;;;31.30
65765;BMP180;52915;53.718;19.946;2023-05-07T15:43:14;101494.80;;;31.50
65765;BMP180;52915;53.718;19.946;2023-05-07T15:48:31;101497.60;;;31.24
65765;BMP180;52915;53.718;19.946;2023-05-07T15:53:37;101501.20;;;30.98
65765;BMP180;52915;53.718;19.946;2023-05-07T15:59:12;101501.00;;;30.10
65765;BMP180;52915;53.718;19.946;2023-05-07T16:11:39;101505.00;;;29.82
65765;BMP180;52915;53.718;19.946;2023-05-07T16:31:24;101509.60;;;27.70
65765;BMP180;52915;53.718;19.946;2023-05-07T16:37:24;101510.60;;;27.24
65765;BMP180;52915;53.718;19.946;2023-05-07T16:48:31;101511.60;;;26.32
65765;BMP180;52915;53.718;19.946;2023-05-07T16:53:53;101516.80;;;25.90
65765;BMP180;52915;53.718;19.946;2023-05-07T16:58:57;101519.20;;;25.10
65765;BMP180;52915;53.718;19.946;2023-05-07T17:14:55;101520.20;;;23.30
65765;BMP180;52915;53.718;19.946;2023-05-07T17:20:01;101531.20;;;22.34
65765;BMP180;52915;53.718;19.946;2023-05-07T17:31:44;101534.80;;;19.40
65765;BMP180;52915;53.718;19.946;2023-05-07T17:36:53;101543.80;;;18.54
65765;BMP180;52915;53.718;19.946;2023-05-07T17:56:45;101559.60;;;16.54
65765;BMP180;52915;53.718;19.946;2023-05-07T18:06:49;101569.00;;;15.74
65765;BMP180;52915;53.718;19.946;2023-05-07T18:11:53;101573.20;;;15.60
65765;BMP180;52915;53.718;19.946;2023-05-07T18:17:03;101574.00;;;15.40
65765;BMP180;52915;53.718;19.946;2023-05-07T18:22:06;101583.60;;;15.10
65765;BMP180;52915;53.718;19.946;2023-05-07T18:27:17;101586.00;;;14.82
65765;BMP180;52915;53.718;19.946;2023-05-07T18:32:21;101586.60;;;14.60
65765;BMP180;52915;53.718;19.946;2023-05-07T18:37:28;101591.40;;;14.30
65765;BMP180;52915;53.718;19.946;2023-05-07T18:42:32;101594.20;;;14.04
65765;BMP180;52915;53.718;19.946;2023-05-07T18:47:48;101601.20;;;13.80
65765;BMP180;52915;53.718;19.946;2023-05-07T18:52:52;101599.60;;;13.50
65765;BMP180;52915;53.718;19.946;2023-05-07T19:26:00;101636.60;;;11.90
65765;BMP180;52915;53.718;19.946;2023-05-07T19:31:54;101640.80;;;11.70
65765;BMP180;52915;53.718;19.946;2023-05-07T19:36:58;101641.20;;;11.50
65765;BMP180;52915;53.718;19.946;2023-05-07T19:42:03;101647.00;;;11.40
65765;BMP180;52915;53.718;19.946;2023-05-07T20:07:59;101655.00;;;10.62
65765;BMP180;52915;53.718;19.946;2023-05-07T20:20:13;101663.00;;;10.20
65765;BMP180;52915;53.718;19.946;2023-05-07T20:25:17;101668.60;;;10.04
65765;BMP180;52915;53.718;19.946;2023-05-07T21:04:52;101707.20;;;8.82
65765;BMP180;52915;53.718;19.946;2023-05-07T21:09:56;101707.20;;;8.70
65765;BMP180;52915;53.718;19.946;2023-05-07T21:21:25;101717.20;;;8.40
65765;BMP180;52915;53.718;19.946;2023-05-07T21:26:30;101717.80;;;8.32
65765;BMP180;52915;53.718;19.946;2023-05-07T21:31:34;101720.40;;;8.30
65765;BMP180;52915;53.718;19.946;2023-05-07T21:36:39;101721.80;;;8.20
65765;BMP180;52915;53.718;19.946;2023-05-07T21:41:43;101723.20;;;8.00
65765;BMP180;52915;53.718;19.946;2023-05-07T21:47:13;101725.60;;;7.90
65765;BMP180;52915;53.718;19.946;2023-05-07T21:52:16;101728.80;;;7.70
65765;BMP180;52915;53.718;19.946;2023-05-07T21:57:21;101731.20;;;7.60
65765;BMP180;52915;53.718;19.946;2023-05-07T22:02:24;101734.00;;;7.50
65765;BMP180;52915;53.718;19.946;2023-05-07T22:08:20;101733.20;;;7.40
65765;BMP180;52915;53.718;19.946;2023-05-07T22:13:24;101737.80;;;7.30
65765;BMP180;52915;53.718;19.946;2023-05-07T22:18:28;101739.40;;;7.14
65765;BMP180;52915;53.718;19.946;2023-05-07T22:23:32;101742.80;;;7.08
65765;BMP180;52915;53.718;19.946;2023-05-07T22:28:36;101749.20;;;6.98
65765;BMP180;52915;53.718;19.946;2023-05-07T22:33:40;101740.20;;;6.88
65765;BMP180;52915;53.718;19.946;2023-05-07T22:38:44;101738.40;;;6.80
65765;BMP180;52915;53.718;19.946;2023-05-07T22:43:48;101741.80;;;6.70
65765;BMP180;52915;53.718;19.946;2023-05-07T22:48:52;101744.40;;;6.60
65765;BMP180;52915;53.718;19.946;2023-05-07T22:53:56;101732.20;;;6.46
65765;BMP180;52915;53.718;19.946;2023-05-07T22:59:00;101736.80;;;6.30
65765;BMP180;52915;53.718;19.946;2023-05-07T23:04:04;101732.20;;;6.20
65765;BMP180;52915;53.718;19.946;2023-05-07T23:09:09;101731.60;;;6.10
65765;BMP180;52915;53.718;19.946;2023-05-07T23:14:13;101728.80;;;5.90
65765;BMP180;52915;53.718;19.946;2023-05-07T23:19:16;101729.20;;;5.80
65765;BMP180;52915;53.718;19.946;2023-05-07T23:24:20;101728.40;;;5.70
65765;BMP180;52915;53.718;19.946;2023-05-07T23:29:24;101727.80;;;5.60
65765;BMP180;52915;53.718;19.946;2023-05-07T23:34:27;101730.00;;;5.54
65765;BMP180;52915;53.718;19.946;2023-05-07T23:39:31;101732.80;;;5.50
65765;BMP180;52915;53.718;19.946;2023-05-07T23:44:35;101732.00;;;5.40
65765;BMP180;52915;53.718;19.946;2023-05-07T23:49:38;101729.40;;;5.30
65765;BMP180;52915;53.718;19.946;2023-05-07T23:54:43;101734.40;;;5.20
65765;BMP180;52915;53.718;19.946;2023-05-07T23:59:46;101734.40;;;5.10
